sensor_id;sensor_type;location;lat;lon;timestamp;P1;durP1;ratioP1;P2;durP2;ratioP2
31382;SDS011;18014;49.228;11.102;2024-03-08T00:01:37;39.53;;;22.90;;
31382;SDS011;18014;49.228;11.102;2024-03-08T00:03:38;41.15;;;23.30;;
31382;SDS011;18014;49.228;11.102;2024-03-08T00:05:40;42.50;;;22.53;;
31382;SDS011;18014;49.228;11.102;2024-03-08T00:07:41;41.25;;;22.98;;
31382;SDS011;18014;49.228;11.102;2024-03-08T00:09:43;42.75;;;24.02;;
31382;SDS011;18014;49.228;11.102;2024-03-08T00:11:44;43.40;;;23.42;;
31382;SDS011;18014;49.228;11.102;2024-03-08T00:13:45;42.80;;;23.13;;
31382;SDS011;18014;49.228;11.102;2024-03-08T00:15:46;41.75;;;23.45;;
31382;SDS011;18014;49.228;11.102;2024-03-08T00:17:47;43.47;;;23.20;;
31382;SDS011;18014;49.228;11.102;2024-03-08T00:19:48;42.85;;;23.73;;
31382;SDS011;18014;49.228;11.102;2024-03-08T00:21:49;42.15;;;22.73;;
31382;SDS011;18014;49.228;11.102;2024-03-08T00:23:50;42.55;;;25.40;;
31382;SDS011;18014;49.228;11.102;2024-03-08T00:25:54;42.90;;;24.40;;
31382;SDS011;18014;49.228;11.102;2024-03-08T00:27:55;43.20;;;23.80;;
31382;SDS011;18014;49.228;11.102;2024-03-08T00:29:59;47.33;;;25.20;;
31382;SDS011;18014;49.228;11.102;2024-03-08T00:32:01;47.15;;;24.48;;
31382;SDS011;18014;49.228;11.102;2024-03-08T00:34:01;48.30;;;24.52;;
31382;SDS011;18014;49.228;11.102;2024-03-08T00:36:02;42.13;;;23.40;;
31382;SDS011;18014;49.228;11.102;2024-03-08T00:38:03;48.30;;;23.38;;
31382;SDS011;18014;49.228;11.102;2024-03-08T00:40:05;46.05;;;23.42;;
31382;SDS011;18014;49.228;11.102;2024-03-08T00:42:09;43.90;;;24.38;;
31382;SDS011;18014;49.228;11.102;2024-03-08T00:44:10;48.92;;;25.02;;
31382;SDS011;18014;49.228;11.102;2024-03-08T00:46:11;46.60;;;25.02;;
31382;SDS011;18014;49.228;11.102;2024-03-08T00:48:12;43.78;;;24.17;;
31382;SDS011;18014;49.228;11.102;2024-03-08T00:50:13;47.47;;;25.13;;
31382;SDS011;18014;49.228;11.102;2024-03-08T00:52:14;43.20;;;24.98;;
31382;SDS011;18014;49.228;11.102;2024-03-08T00:54:15;44.25;;;24.73;;
31382;SDS011;18014;49.228;11.102;2024-03-08T00:56:16;46.63;;;24.85;;
31382;SDS011;18014;49.228;11.102;2024-03-08T00:58:17;44.95;;;25.65;;
31382;SDS011;18014;49.228;11.102;2024-03-08T01:00:18;46.20;;;24.92;;
31382;SDS011;18014;49.228;11.102;2024-03-08T01:02:21;46.90;;;25.95;;
31382;SDS011;18014;49.228;11.102;2024-03-08T01:04:23;48.38;;;24.30;;
31382;SDS011;18014;49.228;11.102;2024-03-08T01:08:27;47.28;;;25.20;;
31382;SDS011;18014;49.228;11.102;2024-03-08T01:10:28;48.97;;;26.23;;
31382;SDS011;18014;49.228;11.102;2024-03-08T01:12:29;50.50;;;26.17;;
31382;SDS011;18014;49.228;11.102;2024-03-08T01:14:30;44.53;;;24.15;;
31382;SDS011;18014;49.228;11.102;2024-03-08T01:16:31;48.50;;;25.45;;
31382;SDS011;18014;49.228;11.102;2024-03-08T01:18:33;51.65;;;25.77;;
31382;SDS011;18014;49.228;11.102;2024-03-08T01:20:34;50.47;;;25.17;;
31382;SDS011;18014;49.228;11.102;2024-03-08T01:22:35;45.22;;;24.25;;
31382;SDS011;18014;49.228;11.102;2024-03-08T01:24:36;37.75;;;23.23;;
31382;SDS011;18014;49.228;11.102;2024-03-08T01:26:37;44.88;;;23.83;;
31382;SDS011;18014;49.228;11.102;2024-03-08T01:28:38;51.65;;;26.35;;
31382;SDS011;18014;49.228;11.102;2024-03-08T01:30:39;42.92;;;24.38;;
31382;SDS011;18014;49.228;11.102;2024-03-08T01:32:42;43.08;;;23.75;;
31382;SDS011;18014;49.228;11.102;2024-03-08T01:34:44;45.33;;;24.50;;
31382;SDS011;18014;49.228;11.102;2024-03-08T01:36:45;48.13;;;24.42;;
31382;SDS011;18014;49.228;11.102;2024-03-08T01:38:46;45.38;;;24.75;;
31382;SDS011;18014;49.228;11.102;2024-03-08T01:40:47;46.08;;;25.15;;
31382;SDS011;18014;49.228;11.102;2024-03-08T01:42:48;47.35;;;25.27;;
31382;SDS011;18014;49.228;11.102;2024-03-08T01:44:49;43.03;;;24.88;;
31382;SDS011;18014;49.228;11.102;2024-03-08T01:46:51;48.20;;;23.90;;
31382;SDS011;18014;49.228;11.102;2024-03-08T01:48:53;44.05;;;24.65;;
31382;SDS011;18014;49.228;11.102;2024-03-08T01:50:55;46.03;;;24.40;;
31382;SDS011;18014;49.228;11.102;2024-03-08T01:55:00;46.22;;;23.55;;
31382;SDS011;18014;49.228;11.102;2024-03-08T01:57:03;39.35;;;23.05;;
31382;SDS011;18014;49.228;11.102;2024-03-08T01:59:05;42.35;;;23.13;;
31382;SDS011;18014;49.228;11.102;2024-03-08T02:01:07;39.97;;;21.38;;
31382;SDS011;18014;49.228;11.102;2024-03-08T02:03:10;46.58;;;24.63;;
31382;SDS011;18014;49.228;11.102;2024-03-08T02:05:11;50.67;;;24.48;;
31382;SDS011;18014;49.228;11.102;2024-03-08T02:07:13;43.58;;;24.13;;
31382;SDS011;18014;49.228;11.102;2024-03-08T02:09:14;44.80;;;25.27;;
31382;SDS011;18014;49.228;11.102;2024-03-08T02:11:17;46.58;;;24.92;;
31382;SDS011;18014;49.228;11.102;2024-03-08T02:13:20;42.55;;;23.90;;
31382;SDS011;18014;49.228;11.102;2024-03-08T02:15:21;49.42;;;25.67;;
31382;SDS011;18014;49.228;11.102;2024-03-08T02:17:22;48.63;;;25.17;;
31382;SDS011;18014;49.228;11.102;2024-03-08T02:19:23;45.97;;;24.67;;
31382;SDS011;18014;49.228;11.102;2024-03-08T02:21:24;51.80;;;26.20;;
31382;SDS011;18014;49.228;11.102;2024-03-08T02:23:25;49.63;;;25.88;;
31382;SDS011;18014;49.228;11.102;2024-03-08T02:25:26;44.92;;;25.08;;
31382;SDS011;18014;49.228;11.102;2024-03-08T02:27:27;51.95;;;25.20;;
31382;SDS011;18014;49.228;11.102;2024-03-08T02:29:29;47.53;;;26.45;;
31382;SDS011;18014;49.228;11.102;2024-03-08T02:31:31;54.00;;;24.58;;
31382;SDS011;18014;49.228;11.102;2024-03-08T02:33:33;46.72;;;24.77;;
31382;SDS011;18014;49.228;11.102;2024-03-08T02:35:34;55.90;;;28.17;;
31382;SDS011;18014;49.228;11.102;2024-03-08T02:37:35;50.03;;;28.13;;
31382;SDS011;18014;49.228;11.102;2024-03-08T02:39:36;50.80;;;28.70;;
31382;SDS011;18014;49.228;11.102;2024-03-08T02:41:37;53.85;;;27.95;;
31382;SDS011;18014;49.228;11.102;2024-03-08T02:43:38;49.50;;;27.77;;
31382;SDS011;18014;49.228;11.102;2024-03-08T02:45:39;51.80;;;28.35;;
31382;SDS011;18014;49.228;11.102;2024-03-08T02:47:41;49.85;;;26.92;;
31382;SDS011;18014;49.228;11.102;2024-03-08T02:49:42;53.97;;;26.48;;
31382;SDS011;18014;49.228;11.102;2024-03-08T02:51:43;46.60;;;26.35;;
31382;SDS011;18014;49.228;11.102;2024-03-08T02:53:46;47.45;;;24.55;;
31382;SDS011;18014;49.228;11.102;2024-03-08T02:57:49;49.13;;;27.17;;
31382;SDS011;18014;49.228;11.102;2024-03-08T02:59:50;53.63;;;28.35;;
31382;SDS011;18014;49.228;11.102;2024-03-08T03:01:53;54.28;;;28.38;;
31382;SDS011;18014;49.228;11.102;2024-03-08T03:03:54;53.42;;;27.42;;
31382;SDS011;18014;49.228;11.102;2024-03-08T03:05:54;51.33;;;27.05;;
31382;SDS011;18014;49.228;11.102;2024-03-08T03:07:56;50.05;;;27.10;;
31382;SDS011;18014;49.228;11.102;2024-03-08T03:09:58;46.50;;;26.50;;
31382;SDS011;18014;49.228;11.102;2024-03-08T03:12:00;46.85;;;25.00;;
31382;SDS011;18014;49.228;11.102;2024-03-08T03:14:02;58.97;;;28.60;;
31382;SDS011;18014;49.228;11.102;2024-03-08T03:16:04;50.90;;;25.92;;
31382;SDS011;18014;49.228;11.102;2024-03-08T03:18:05;51.25;;;28.23;;
31382;SDS011;18014;49.228;11.102;2024-03-08T03:20:08;49.53;;;27.80;;
31382;SDS011;18014;49.228;11.102;2024-03-08T03:22:12;51.25;;;26.80;;
31382;SDS011;18014;49.228;11.102;2024-03-08T03:24:13;52.17;;;28.30;;
31382;SDS011;18014;49.228;11.102;2024-03-08T03:26:16;53.28;;;28.95;;
31382;SDS011;18014;49.228;11.102;2024-03-08T03:28:18;53.85;;;27.90;;
31382;SDS011;18014;49.228;11.102;2024-03-08T03:30:22;52.55;;;26.33;;
31382;SDS011;18014;49.228;11.102;2024-03-08T03:32:26;51.35;;;26.88;;
31382;SDS011;18014;49.228;11.102;2024-03-08T03:34:28;47.53;;;25.63;;
31382;SDS011;18014;49.228;11.102;2024-03-08T03:36:29;50.88;;;28.08;;
31382;SDS011;18014;49.228;11.102;2024-03-08T03:38:31;45.80;;;24.27;;
31382;SDS011;18014;49.228;11.102;2024-03-08T03:40:34;53.78;;;28.48;;
31382;SDS011;18014;49.228;11.102;2024-03-08T03:42:36;54.85;;;27.80;;
31382;SDS011;18014;49.228;11.102;2024-03-08T03:44:38;49.30;;;25.98;;
31382;SDS011;18014;49.228;11.102;2024-03-08T03:46:41;53.58;;;27.55;;
31382;SDS011;18014;49.228;11.102;2024-03-08T03:48:45;57.92;;;27.60;;
31382;SDS011;18014;49.228;11.102;2024-03-08T03:50:46;53.13;;;28.80;;
31382;SDS011;18014;49.228;11.102;2024-03-08T03:52:47;49.97;;;27.88;;
31382;SDS011;18014;49.228;11.102;2024-03-08T03:54:49;55.97;;;28.05;;
31382;SDS011;18014;49.228;11.102;2024-03-08T03:56:49;55.17;;;28.48;;
31382;SDS011;18014;49.228;11.102;2024-03-08T03:58:53;56.33;;;28.85;;
31382;SDS011;18014;49.228;11.102;2024-03-08T04:00:54;49.72;;;26.13;;
31382;SDS011;18014;49.228;11.102;2024-03-08T04:02:54;49.20;;;25.95;;
31382;SDS011;18014;49.228;11.102;2024-03-08T04:04:58;54.08;;;28.13;;
31382;SDS011;18014;49.228;11.102;2024-03-08T04:07:00;47.92;;;26.75;;
31382;SDS011;18014;49.228;11.102;2024-03-08T04:09:02;55.50;;;27.27;;
31382;SDS011;18014;49.228;11.102;2024-03-08T04:11:04;56.85;;;28.90;;
31382;SDS011;18014;49.228;11.102;2024-03-08T04:13:05;50.88;;;28.25;;
31382;SDS011;18014;49.228;11.102;2024-03-08T04:15:06;51.03;;;26.88;;
31382;SDS011;18014;49.228;11.102;2024-03-08T04:17:07;52.47;;;27.17;;
31382;SDS011;18014;49.228;11.102;2024-03-08T04:19:09;51.75;;;28.52;;
31382;SDS011;18014;49.228;11.102;2024-03-08T04:21:10;49.90;;;28.35;;
31382;SDS011;18014;49.228;11.102;2024-03-08T04:23:11;53.10;;;26.92;;
31382;SDS011;18014;49.228;11.102;2024-03-08T04:25:12;49.67;;;26.27;;
31382;SDS011;18014;49.228;11.102;2024-03-08T04:27:13;49.30;;;26.08;;
31382;SDS011;18014;49.228;11.102;2024-03-08T04:29:14;46.45;;;26.70;;
31382;SDS011;18014;49.228;11.102;2024-03-08T04:31:17;51.33;;;26.77;;
31382;SDS011;18014;49.228;11.102;2024-03-08T04:33:18;51.42;;;27.10;;
31382;SDS011;18014;49.228;11.102;2024-03-08T04:35:19;54.40;;;27.75;;
31382;SDS011;18014;49.228;11.102;2024-03-08T04:37:20;55.28;;;28.67;;
31382;SDS011;18014;49.228;11.102;2024-03-08T04:39:22;54.80;;;28.00;;
31382;SDS011;18014;49.228;11.102;2024-03-08T04:41:23;55.45;;;28.30;;
31382;SDS011;18014;49.228;11.102;2024-03-08T04:43:23;50.05;;;26.88;;
31382;SDS011;18014;49.228;11.102;2024-03-08T04:45:26;50.25;;;27.77;;
31382;SDS011;18014;49.228;11.102;2024-03-08T04:47:27;50.28;;;27.55;;
31382;SDS011;18014;49.228;11.102;2024-03-08T04:49:28;53.33;;;28.25;;
31382;SDS011;18014;49.228;11.102;2024-03-08T04:51:29;50.28;;;27.25;;
31382;SDS011;18014;49.228;11.102;2024-03-08T04:53:30;53.42;;;27.02;;
31382;SDS011;18014;49.228;11.102;2024-03-08T04:55:33;55.92;;;28.15;;
31382;SDS011;18014;49.228;11.102;2024-03-08T04:57:35;55.80;;;29.10;;
31382;SDS011;18014;49.228;11.102;2024-03-08T04:59:36;50.25;;;26.70;;
31382;SDS011;18014;49.228;11.102;2024-03-08T05:01:37;52.05;;;26.45;;
31382;SDS011;18014;49.228;11.102;2024-03-08T05:03:38;55.42;;;28.40;;
31382;SDS011;18014;49.228;11.102;2024-03-08T05:05:39;56.28;;;29.17;;
31382;SDS011;18014;49.228;11.102;2024-03-08T05:07:40;51.38;;;28.17;;
31382;SDS011;18014;49.228;11.102;2024-03-08T05:09:41;54.90;;;28.95;;
31382;SDS011;18014;49.228;11.102;2024-03-08T05:11:42;56.70;;;29.77;;
31382;SDS011;18014;49.228;11.102;2024-03-08T05:13:44;49.67;;;26.38;;
31382;SDS011;18014;49.228;11.102;2024-03-08T05:15:47;46.90;;;26.20;;
31382;SDS011;18014;49.228;11.102;2024-03-08T05:17:50;56.17;;;27.95;;
31382;SDS011;18014;49.228;11.102;2024-03-08T05:19:51;53.75;;;27.88;;
31382;SDS011;18014;49.228;11.102;2024-03-08T05:21:52;52.95;;;28.55;;
31382;SDS011;18014;49.228;11.102;2024-03-08T05:23:53;55.33;;;28.67;;
31382;SDS011;18014;49.228;11.102;2024-03-08T05:25:54;53.75;;;28.98;;
31382;SDS011;18014;49.228;11.102;2024-03-08T05:27:55;56.33;;;28.05;;
31382;SDS011;18014;49.228;11.102;2024-03-08T05:29:55;55.75;;;28.50;;
31382;SDS011;18014;49.228;11.102;2024-03-08T05:31:56;57.85;;;27.60;;
31382;SDS011;18014;49.228;11.102;2024-03-08T05:33:58;55.25;;;29.08;;
31382;SDS011;18014;49.228;11.102;2024-03-08T05:35:59;50.95;;;26.83;;
31382;SDS011;18014;49.228;11.102;2024-03-08T05:38:02;53.92;;;28.90;;
31382;SDS011;18014;49.228;11.102;2024-03-08T05:40:03;52.90;;;26.20;;
31382;SDS011;18014;49.228;11.102;2024-03-08T05:42:08;48.67;;;25.92;;
31382;SDS011;18014;49.228;11.102;2024-03-08T05:44:10;52.20;;;26.48;;
31382;SDS011;18014;49.228;11.102;2024-03-08T05:46:15;59.22;;;29.25;;
31382;SDS011;18014;49.228;11.102;2024-03-08T05:48:18;53.10;;;27.27;;
31382;SDS011;18014;49.228;11.102;2024-03-08T05:50:19;50.50;;;28.50;;
31382;SDS011;18014;49.228;11.102;2024-03-08T05:52:20;53.38;;;28.02;;
31382;SDS011;18014;49.228;11.102;2024-03-08T05:54:21;59.60;;;30.25;;
31382;SDS011;18014;49.228;11.102;2024-03-08T05:56:24;52.72;;;28.80;;
31382;SDS011;18014;49.228;11.102;2024-03-08T05:58:25;64.10;;;27.30;;
31382;SDS011;18014;49.228;11.102;2024-03-08T06:00:26;53.20;;;27.67;;
31382;SDS011;18014;49.228;11.102;2024-03-08T06:02:27;52.00;;;26.58;;
31382;SDS011;18014;49.228;11.102;2024-03-08T06:04:28;54.05;;;27.48;;
31382;SDS011;18014;49.228;11.102;2024-03-08T06:06:29;51.10;;;25.85;;
31382;SDS011;18014;49.228;11.102;2024-03-08T06:08:30;50.35;;;27.85;;
31382;SDS011;18014;49.228;11.102;2024-03-08T06:10:31;41.40;;;24.80;;
31382;SDS011;18014;49.228;11.102;2024-03-08T06:12:32;50.92;;;27.52;;
31382;SDS011;18014;49.228;11.102;2024-03-08T06:14:40;49.75;;;26.98;;
31382;SDS011;18014;49.228;11.102;2024-03-08T06:16:40;52.83;;;27.42;;
31382;SDS011;18014;49.228;11.102;2024-03-08T06:18:41;53.38;;;27.13;;
31382;SDS011;18014;49.228;11.102;2024-03-08T06:20:42;45.88;;;26.23;;
31382;SDS011;18014;49.228;11.102;2024-03-08T06:22:43;52.15;;;26.30;;
31382;SDS011;18014;49.228;11.102;2024-03-08T06:24:45;47.13;;;26.10;;
31382;SDS011;18014;49.228;11.102;2024-03-08T06:26:47;47.33;;;26.17;;
31382;SDS011;18014;49.228;11.102;2024-03-08T06:28:48;49.22;;;26.65;;
31382;SDS011;18014;49.228;11.102;2024-03-08T06:30:50;50.83;;;28.13;;
31382;SDS011;18014;49.228;11.102;2024-03-08T06:32:51;49.65;;;26.25;;
31382;SDS011;18014;49.228;11.102;2024-03-08T06:34:52;52.22;;;27.20;;
31382;SDS011;18014;49.228;11.102;2024-03-08T06:36:53;59.28;;;30.45;;
31382;SDS011;18014;49.228;11.102;2024-03-08T06:39:00;75.57;;;34.90;;
31382;SDS011;18014;49.228;11.102;2024-03-08T06:41:01;61.25;;;32.10;;
31382;SDS011;18014;49.228;11.102;2024-03-08T06:43:04;56.67;;;31.42;;
31382;SDS011;18014;49.228;11.102;2024-03-08T06:45:06;58.00;;;30.15;;
31382;SDS011;18014;49.228;11.102;2024-03-08T06:47:09;54.28;;;28.15;;
31382;SDS011;18014;49.228;11.102;2024-03-08T06:49:09;55.38;;;29.48;;
31382;SDS011;18014;49.228;11.102;2024-03-08T06:51:11;60.92;;;31.02;;
31382;SDS011;18014;49.228;11.102;2024-03-08T06:53:12;51.30;;;27.98;;
31382;SDS011;18014;49.228;11.102;2024-03-08T06:55:13;53.17;;;28.20;;
31382;SDS011;18014;49.228;11.102;2024-03-08T06:57:14;58.22;;;30.80;;
31382;SDS011;18014;49.228;11.102;2024-03-08T06:59:16;63.17;;;34.13;;
31382;SDS011;18014;49.228;11.102;2024-03-08T07:01:18;67.00;;;34.35;;
31382;SDS011;18014;49.228;11.102;2024-03-08T07:03:19;57.03;;;30.88;;
31382;SDS011;18014;49.228;11.102;2024-03-08T07:05:22;59.65;;;31.50;;
31382;SDS011;18014;49.228;11.102;2024-03-08T07:07:24;65.65;;;33.45;;
31382;SDS011;18014;49.228;11.102;2024-03-08T07:09:27;70.18;;;36.00;;
31382;SDS011;18014;49.228;11.102;2024-03-08T07:11:28;66.72;;;35.83;;
31382;SDS011;18014;49.228;11.102;2024-03-08T07:13:29;66.00;;;37.00;;
31382;SDS011;18014;49.228;11.102;2024-03-08T07:15:30;60.40;;;33.58;;
31382;SDS011;18014;49.228;11.102;2024-03-08T07:17:31;61.63;;;34.58;;
31382;SDS011;18014;49.228;11.102;2024-03-08T07:19:34;63.85;;;33.15;;
31382;SDS011;18014;49.228;11.102;2024-03-08T07:21:35;63.88;;;33.70;;
31382;SDS011;18014;49.228;11.102;2024-03-08T07:23:36;64.63;;;34.20;;
31382;SDS011;18014;49.228;11.102;2024-03-08T07:25:46;63.85;;;35.00;;
31382;SDS011;18014;49.228;11.102;2024-03-08T07:27:49;78.20;;;40.50;;
31382;SDS011;18014;49.228;11.102;2024-03-08T07:29:52;77.32;;;43.03;;
31382;SDS011;18014;49.228;11.102;2024-03-08T07:31:53;75.93;;;40.85;;
31382;SDS011;18014;49.228;11.102;2024-03-08T07:34:14;76.03;;;44.17;;
31382;SDS011;18014;49.228;11.102;2024-03-08T07:36:16;77.88;;;42.42;;
31382;SDS011;18014;49.228;11.102;2024-03-08T07:38:17;71.75;;;40.40;;
31382;SDS011;18014;49.228;11.102;2024-03-08T07:40:21;70.90;;;38.45;;
31382;SDS011;18014;49.228;11.102;2024-03-08T07:42:23;64.20;;;37.35;;
31382;SDS011;18014;49.228;11.102;2024-03-08T07:44:24;66.05;;;37.78;;
31382;SDS011;18014;49.228;11.102;2024-03-08T07:46:25;61.08;;;35.42;;
31382;SDS011;18014;49.228;11.102;2024-03-08T07:48:26;61.42;;;33.90;;
31382;SDS011;18014;49.228;11.102;2024-03-08T07:50:27;54.63;;;30.88;;
31382;SDS011;18014;49.228;11.102;2024-03-08T07:52:28;59.92;;;33.03;;
31382;SDS011;18014;49.228;11.102;2024-03-08T07:54:30;53.67;;;31.23;;
31382;SDS011;18014;49.228;11.102;2024-03-08T07:56:31;48.15;;;28.63;;
31382;SDS011;18014;49.228;11.102;2024-03-08T07:58:32;47.75;;;28.45;;
31382;SDS011;18014;49.228;11.102;2024-03-08T08:00:33;56.65;;;30.92;;
31382;SDS011;18014;49.228;11.102;2024-03-08T08:02:34;50.33;;;29.42;;
31382;SDS011;18014;49.228;11.102;2024-03-08T08:04:35;49.72;;;28.55;;
31382;SDS011;18014;49.228;11.102;2024-03-08T08:06:37;52.85;;;28.75;;
31382;SDS011;18014;49.228;11.102;2024-03-08T08:08:41;50.15;;;27.95;;
31382;SDS011;18014;49.228;11.102;2024-03-08T08:10:42;47.97;;;27.65;;
31382;SDS011;18014;49.228;11.102;2024-03-08T08:12:44;47.83;;;26.52;;
31382;SDS011;18014;49.228;11.102;2024-03-08T08:14:46;46.88;;;27.63;;
31382;SDS011;18014;49.228;11.102;2024-03-08T08:16:47;43.17;;;25.33;;
31382;SDS011;18014;49.228;11.102;2024-03-08T08:18:50;46.88;;;26.40;;
31382;SDS011;18014;49.228;11.102;2024-03-08T08:20:52;44.10;;;26.02;;
31382;SDS011;18014;49.228;11.102;2024-03-08T08:22:53;39.65;;;23.25;;
31382;SDS011;18014;49.228;11.102;2024-03-08T08:24:55;40.57;;;23.93;;
31382;SDS011;18014;49.228;11.102;2024-03-08T08:26:56;37.92;;;22.52;;
31382;SDS011;18014;49.228;11.102;2024-03-08T08:28:57;37.92;;;22.25;;
31382;SDS011;18014;49.228;11.102;2024-03-08T08:30:59;38.85;;;21.20;;
31382;SDS011;18014;49.228;11.102;2024-03-08T08:33:00;33.47;;;20.08;;
31382;SDS011;18014;49.228;11.102;2024-03-08T08:35:02;41.17;;;21.45;;
31382;SDS011;18014;49.228;11.102;2024-03-08T08:37:05;33.67;;;20.40;;
31382;SDS011;18014;49.228;11.102;2024-03-08T08:39:06;30.20;;;18.17;;
31382;SDS011;18014;49.228;11.102;2024-03-08T08:41:13;38.03;;;19.80;;
31382;SDS011;18014;49.228;11.102;2024-03-08T08:43:16;34.63;;;20.02;;
31382;SDS011;18014;49.228;11.102;2024-03-08T08:45:17;31.05;;;18.98;;
31382;SDS011;18014;49.228;11.102;2024-03-08T08:47:18;32.60;;;18.90;;
31382;SDS011;18014;49.228;11.102;2024-03-08T08:49:19;33.15;;;19.58;;
31382;SDS011;18014;49.228;11.102;2024-03-08T08:51:20;31.67;;;18.10;;
31382;SDS011;18014;49.228;11.102;2024-03-08T08:53:23;32.80;;;18.85;;
31382;SDS011;18014;49.228;11.102;2024-03-08T08:55:23;32.00;;;18.15;;
31382;SDS011;18014;49.228;11.102;2024-03-08T08:57:28;32.15;;;18.38;;
31382;SDS011;18014;49.228;11.102;2024-03-08T08:59:30;34.35;;;18.85;;
31382;SDS011;18014;49.228;11.102;2024-03-08T09:01:31;34.40;;;19.63;;
31382;SDS011;18014;49.228;11.102;2024-03-08T09:03:33;33.85;;;18.23;;
31382;SDS011;18014;49.228;11.102;2024-03-08T09:05:34;33.07;;;20.10;;
31382;SDS011;18014;49.228;11.102;2024-03-08T09:07:35;30.75;;;17.17;;
31382;SDS011;18014;49.228;11.102;2024-03-08T09:09:37;30.23;;;17.92;;
31382;SDS011;18014;49.228;11.102;2024-03-08T09:11:38;29.88;;;18.33;;
31382;SDS011;18014;49.228;11.102;2024-03-08T09:13:45;32.90;;;17.77;;
31382;SDS011;18014;49.228;11.102;2024-03-08T09:15:47;33.80;;;18.20;;
31382;SDS011;18014;49.228;11.102;2024-03-08T09:17:47;28.83;;;17.38;;
31382;SDS011;18014;49.228;11.102;2024-03-08T09:19:49;27.90;;;16.88;;
31382;SDS011;18014;49.228;11.102;2024-03-08T09:21:50;31.45;;;17.23;;
31382;SDS011;18014;49.228;11.102;2024-03-08T09:23:51;30.85;;;16.02;;
31382;SDS011;18014;49.228;11.102;2024-03-08T09:25:52;25.48;;;15.52;;
31382;SDS011;18014;49.228;11.102;2024-03-08T09:27:53;27.40;;;16.27;;
31382;SDS011;18014;49.228;11.102;2024-03-08T09:29:54;28.77;;;16.83;;
31382;SDS011;18014;49.228;11.102;2024-03-08T09:31:55;22.58;;;14.65;;
31382;SDS011;18014;49.228;11.102;2024-03-08T09:33:57;28.98;;;16.10;;
31382;SDS011;18014;49.228;11.102;2024-03-08T09:35:57;24.73;;;14.63;;
31382;SDS011;18014;49.228;11.102;2024-03-08T09:37:58;28.02;;;15.20;;
31382;SDS011;18014;49.228;11.102;2024-03-08T09:39:59;29.38;;;16.02;;
31382;SDS011;18014;49.228;11.102;2024-03-08T09:42:04;23.88;;;14.35;;
31382;SDS011;18014;49.228;11.102;2024-03-08T09:44:06;25.70;;;15.05;;
31382;SDS011;18014;49.228;11.102;2024-03-08T09:46:06;24.85;;;14.60;;
31382;SDS011;18014;49.228;11.102;2024-03-08T09:48:09;26.65;;;15.60;;
31382;SDS011;18014;49.228;11.102;2024-03-08T09:50:14;27.98;;;14.30;;
31382;SDS011;18014;49.228;11.102;2024-03-08T09:52:15;29.25;;;15.80;;
31382;SDS011;18014;49.228;11.102;2024-03-08T09:54:18;23.08;;;14.27;;
31382;SDS011;18014;49.228;11.102;2024-03-08T09:56:22;22.77;;;14.50;;
31382;SDS011;18014;49.228;11.102;2024-03-08T09:58:23;23.67;;;13.37;;
31382;SDS011;18014;49.228;11.102;2024-03-08T10:00:33;26.27;;;13.85;;
31382;SDS011;18014;49.228;11.102;2024-03-08T10:02:34;26.45;;;14.20;;
31382;SDS011;18014;49.228;11.102;2024-03-08T10:04:35;23.15;;;13.85;;
31382;SDS011;18014;49.228;11.102;2024-03-08T10:06:36;26.00;;;13.85;;
31382;SDS011;18014;49.228;11.102;2024-03-08T10:08:37;26.75;;;13.68;;
31382;SDS011;18014;49.228;11.102;2024-03-08T10:10:39;22.07;;;13.40;;
31382;SDS011;18014;49.228;11.102;2024-03-08T10:12:40;26.40;;;14.07;;
31382;SDS011;18014;49.228;11.102;2024-03-08T10:14:41;23.95;;;15.10;;
31382;SDS011;18014;49.228;11.102;2024-03-08T10:16:43;23.40;;;13.20;;
31382;SDS011;18014;49.228;11.102;2024-03-08T10:18:46;24.55;;;13.63;;
31382;SDS011;18014;49.228;11.102;2024-03-08T10:21:03;22.98;;;12.98;;
31382;SDS011;18014;49.228;11.102;2024-03-08T10:23:07;19.48;;;12.55;;
31382;SDS011;18014;49.228;11.102;2024-03-08T10:27:13;25.75;;;13.65;;
31382;SDS011;18014;49.228;11.102;2024-03-08T10:29:18;23.17;;;12.85;;
31382;SDS011;18014;49.228;11.102;2024-03-08T10:31:19;22.35;;;11.93;;
31382;SDS011;18014;49.228;11.102;2024-03-08T10:33:21;22.73;;;12.55;;
31382;SDS011;18014;49.228;11.102;2024-03-08T10:35:22;19.48;;;11.75;;
31382;SDS011;18014;49.228;11.102;2024-03-08T10:37:24;25.07;;;12.33;;
31382;SDS011;18014;49.228;11.102;2024-03-08T10:39:28;26.58;;;13.00;;
31382;SDS011;18014;49.228;11.102;2024-03-08T10:41:36;19.45;;;11.65;;
31382;SDS011;18014;49.228;11.102;2024-03-08T10:44:05;21.77;;;11.68;;
31382;SDS011;18014;49.228;11.102;2024-03-08T10:47:13;20.92;;;11.23;;
31382;SDS011;18014;49.228;11.102;2024-03-08T10:48:44;20.73;;;12.13;;
31382;SDS011;18014;49.228;11.102;2024-03-08T10:50:49;20.38;;;11.00;;
31382;SDS011;18014;49.228;11.102;2024-03-08T10:52:52;18.02;;;10.93;;
31382;SDS011;18014;49.228;11.102;2024-03-08T10:54:53;19.23;;;11.05;;
31382;SDS011;18014;49.228;11.102;2024-03-08T10:56:56;14.95;;;10.52;;
31382;SDS011;18014;49.228;11.102;2024-03-08T10:58:57;17.52;;;10.43;;
31382;SDS011;18014;49.228;11.102;2024-03-08T11:00:58;18.52;;;10.77;;
31382;SDS011;18014;49.228;11.102;2024-03-08T11:02:59;13.40;;;8.50;;
31382;SDS011;18014;49.228;11.102;2024-03-08T11:05:00;16.15;;;9.60;;
31382;SDS011;18014;49.228;11.102;2024-03-08T11:07:03;17.58;;;9.55;;
31382;SDS011;18014;49.228;11.102;2024-03-08T11:11:35;16.95;;;10.48;;
31382;SDS011;18014;49.228;11.102;2024-03-08T11:13:37;17.40;;;9.98;;
31382;SDS011;18014;49.228;11.102;2024-03-08T11:15:40;15.10;;;9.32;;
31382;SDS011;18014;49.228;11.102;2024-03-08T11:17:47;17.67;;;10.35;;
31382;SDS011;18014;49.228;11.102;2024-03-08T11:19:48;17.40;;;9.48;;
31382;SDS011;18014;49.228;11.102;2024-03-08T11:21:57;16.25;;;9.32;;
31382;SDS011;18014;49.228;11.102;2024-03-08T11:24:02;17.35;;;10.18;;
31382;SDS011;18014;49.228;11.102;2024-03-08T11:26:19;18.70;;;9.90;;
31382;SDS011;18014;49.228;11.102;2024-03-08T11:28:22;22.35;;;10.70;;
31382;SDS011;18014;49.228;11.102;2024-03-08T11:30:24;15.05;;;9.23;;
31382;SDS011;18014;49.228;11.102;2024-03-08T11:32:27;15.75;;;9.68;;
31382;SDS011;18014;49.228;11.102;2024-03-08T11:36:34;16.10;;;9.80;;
31382;SDS011;18014;49.228;11.102;2024-03-08T11:38:40;18.50;;;10.82;;
31382;SDS011;18014;49.228;11.102;2024-03-08T11:40:47;19.02;;;11.07;;
31382;SDS011;18014;49.228;11.102;2024-03-08T11:42:51;15.15;;;9.43;;
31382;SDS011;18014;49.228;11.102;2024-03-08T11:44:52;15.60;;;9.20;;
31382;SDS011;18014;49.228;11.102;2024-03-08T11:46:54;18.55;;;10.00;;
31382;SDS011;18014;49.228;11.102;2024-03-08T11:48:55;15.38;;;10.00;;
31382;SDS011;18014;49.228;11.102;2024-03-08T11:51:00;17.08;;;10.38;;
31382;SDS011;18014;49.228;11.102;2024-03-08T11:53:02;18.33;;;9.93;;
31382;SDS011;18014;49.228;11.102;2024-03-08T11:55:05;14.70;;;9.27;;
31382;SDS011;18014;49.228;11.102;2024-03-08T11:57:07;15.68;;;10.43;;